Time;durP1;ratioP1;P1;durP2;ratioP2;P2;SDS_P1;SDS_P2;PMS_P1;PMS_P2;Temp;Humidity;BMP_temperature;BMP_pressure;BME280_temperature;BME280_humidity;BME280_pressure;Samples;Min_cycle;Max_cycle;Signal;HPM_P1;HPM_P2
2022/01/08 00:00:40;;;;;;;;;;;20.40;35.80;;;;;;482623;246;1135;-39
2022/01/08 00:02:42;;;;;;;;;;;20.40;35.80;;;;;;482426;246;1234;-39
2022/01/08 00:04:43;;;;;;;;;;;20.30;35.80;;;;;;482738;246;1042;-39
2022/01/08 00:06:44;;;;;;;;;;;20.30;35.80;;;;;;482248;246;1245;-39
2022/01/08 00:08:46;;;;;;;;;;;20.40;35.80;;;;;;482711;246;2185;-39
2022/01/08 00:10:47;;;;;;;;;;;20.40;35.90;;;;;;482658;246;1314;-39
2022/01/08 00:12:50;;;;;;;;;;;20.30;35.80;;;;;;482691;246;1197;-39
2022/01/08 00:14:51;;;;;;;;;;;20.30;35.80;;;;;;482303;246;1235;-39
2022/01/08 00:16:52;;;;;;;;;;;20.30;35.80;;;;;;482629;246;1278;-39
2022/01/08 00:18:54;;;;;;;;;;;20.40;35.90;;;;;;482276;246;1155;-39
2022/01/08 00:20:55;;;;;;;;;;;20.30;35.80;;;;;;482696;246;1067;-39
2022/01/08 00:22:57;;;;;;;;;;;20.30;35.90;;;;;;482577;246;1201;-39
2022/01/08 00:24:58;;;;;;;;;;;20.40;35.80;;;;;;482490;246;1433;-39
2022/01/08 00:26:59;;;;;;;;;;;20.40;35.80;;;;;;482528;246;1210;-39
2022/01/08 00:29:00;;;;;;;;;;;20.40;35.80;;;;;;482574;246;2153;-39
2022/01/08 00:31:03;;;;;;;;;;;20.40;35.80;;;;;;482414;246;1333;-39
2022/01/08 00:33:03;;;;;;;;;;;20.30;35.70;;;;;;482283;247;2143;-39
2022/01/08 00:35:04;;;;;;;;;;;20.30;35.70;;;;;;482408;246;1015;-39
2022/01/08 00:37:06;;;;;;;;;;;20.30;35.80;;;;;;482230;246;1200;-39
2022/01/08 00:39:08;;;;;;;;;;;20.30;35.80;;;;;;482705;246;1045;-39
2022/01/08 00:41:09;;;;;;;;;;;20.30;35.80;;;;;;482226;243;1303;-39
2022/01/08 00:43:10;;;;;;;;;;;20.30;35.80;;;;;;482661;246;1066;-39
2022/01/08 00:45:12;;;;;;;;;;;20.30;35.80;;;;;;482286;246;1209;-39
2022/01/08 00:47:13;;;;;;;;;;;20.30;35.90;;;;;;482378;246;1181;-39
2022/01/08 00:49:14;;;;;;;;;;;20.30;35.90;;;;;;482285;246;2133;-39
2022/01/08 00:51:15;;;;;;;;;;;20.30;35.90;;;;;;482369;246;1173;-39
2022/01/08 00:53:17;;;;;;;;;;;20.30;35.90;;;;;;482225;246;1037;-39
2022/01/08 00:55:18;;;;;;;;;;;20.30;35.90;;;;;;482326;246;1067;-39
2022/01/08 00:57:19;;;;;;;;;;;20.30;35.80;;;;;;482350;246;1125;-39
2022/01/08 00:59:21;;;;;;;;;;;20.30;35.80;;;;;;482459;246;1294;-39
2022/01/08 01:01:22;;;;;;;;;;;20.30;35.90;;;;;;482649;246;1390;-39
2022/01/08 01:03:23;;;;;;;;;;;20.30;35.80;;;;;;482251;246;1319;-39
2022/01/08 01:05:25;;;;;;;;;;;20.30;35.80;;;;;;482735;246;1216;-39
2022/01/08 01:07:26;;;;;;;;;;;20.30;35.90;;;;;;482561;246;1179;-39
2022/01/08 01:09:27;;;;;;;;;;;20.30;35.90;;;;;;482698;246;2181;-39
2022/01/08 01:11:29;;;;;;;;;;;20.30;35.90;;;;;;482180;243;1708;-39
2022/01/08 01:13:30;;;;;;;;;;;20.30;36.00;;;;;;482416;246;1042;-39
2022/01/08 01:15:31;;;;;;;;;;;20.30;35.80;;;;;;482339;246;1162;-39
2022/01/08 01:17:33;;;;;;;;;;;20.40;35.60;;;;;;482579;246;1195;-39
2022/01/08 01:19:35;;;;;;;;;;;20.60;35.20;;;;;;482522;246;1004;-39
2022/01/08 01:21:35;;;;;;;;;;;20.80;34.90;;;;;;482309;247;2396;-39
2022/01/08 01:23:40;;;;;;;;;;;21.00;34.70;;;;;;482266;246;1070;-39
2022/01/08 01:25:42;;;;;;;;;;;21.00;34.50;;;;;;482104;244;2148;-40
2022/01/08 01:27:58;;;;;;;;;;;21.10;34.30;;;;;;482099;246;2208;-39
2022/01/08 01:30:02;;;;;;;;;;;21.20;34.20;;;;;;481990;247;2606;-39
2022/01/08 01:41:23;;;;;;;;;;;21.50;33.70;;;;;;482453;243;1219;-39
2022/01/08 01:43:37;;;;;;;;;;;21.60;33.60;;;;;;481879;247;2457;-39
2022/01/08 01:47:47;;;;;;;;;;;21.60;33.40;;;;;;482174;247;1175;-39
2022/01/08 01:49:48;;;;;;;;;;;21.70;33.40;;;;;;482238;246;2197;-39
2022/01/08 01:51:49;;;;;;;;;;;21.70;33.30;;;;;;482451;246;1342;-39
2022/01/08 01:53:51;;;;;;;;;;;21.80;33.30;;;;;;482249;246;1312;-39
2022/01/08 01:55:52;;;;;;;;;;;21.80;33.30;;;;;;482684;246;1393;-39
2022/01/08 01:57:53;;;;;;;;;;;21.80;33.20;;;;;;482626;246;1144;-39
2022/01/08 01:59:54;;;;;;;;;;;21.80;33.10;;;;;;482645;246;1147;-39
2022/01/08 02:01:56;;;;;;;;;;;21.90;33.20;;;;;;482689;246;1746;-39
2022/01/08 02:03:57;;;;;;;;;;;21.90;33.10;;;;;;482320;246;1239;-39
2022/01/08 02:05:58;;;;;;;;;;;21.90;33.10;;;;;;482731;246;1059;-39
2022/01/08 02:08:00;;;;;;;;;;;21.90;33.00;;;;;;482429;246;1225;-39
2022/01/08 02:10:01;;;;;;;;;;;21.90;33.00;;;;;;482300;246;2208;-39
2022/01/08 02:12:02;;;;;;;;;;;22.00;33.00;;;;;;482319;246;1354;-39
2022/01/08 02:14:04;;;;;;;;;;;22.00;33.00;;;;;;482439;246;1074;-39
2022/01/08 02:16:06;;;;;;;;;;;22.00;32.90;;;;;;482364;246;1203;-39
2022/01/08 02:18:06;;;;;;;;;;;22.00;32.90;;;;;;482197;247;2460;-39
2022/01/08 02:20:08;;;;;;;;;;;22.00;32.90;;;;;;482327;246;1115;-39
2022/01/08 02:22:15;;;;;;;;;;;22.10;32.90;;;;;;482300;246;1326;-39
2022/01/08 02:24:11;;;;;;;;;;;22.10;32.90;;;;;;481983;247;2017;-39
2022/01/08 02:26:12;;;;;;;;;;;22.10;32.90;;;;;;482575;246;1286;-39
2022/01/08 02:28:14;;;;;;;;;;;22.10;32.80;;;;;;482474;246;1182;-39
2022/01/08 02:30:15;;;;;;;;;;;22.10;32.80;;;;;;482442;246;2184;-39
2022/01/08 02:32:18;;;;;;;;;;;22.10;32.80;;;;;;482538;246;1647;-39
2022/01/08 02:34:18;;;;;;;;;;;22.10;32.80;;;;;;482233;247;2124;-39
2022/01/08 02:36:19;;;;;;;;;;;22.20;32.80;;;;;;482585;246;1231;-39
2022/01/08 02:38:20;;;;;;;;;;;22.20;32.80;;;;;;482364;246;1072;-39
2022/01/08 02:40:23;;;;;;;;;;;22.20;32.80;;;;;;482316;246;1067;-39
2022/01/08 02:42:26;;;;;;;;;;;22.20;32.70;;;;;;482207;246;2142;-39
2022/01/08 02:44:24;;;;;;;;;;;22.20;32.70;;;;;;482132;247;1914;-39
2022/01/08 02:46:28;;;;;;;;;;;22.20;32.70;;;;;;482256;246;1498;-40
2022/01/08 02:48:27;;;;;;;;;;;22.20;32.70;;;;;;482157;247;1903;-39
2022/01/08 02:50:28;;;;;;;;;;;22.30;32.70;;;;;;482727;246;2130;-39
2022/01/08 02:52:29;;;;;;;;;;;22.30;32.70;;;;;;482414;246;1570;-40
2022/01/08 02:54:31;;;;;;;;;;;22.30;32.70;;;;;;482436;246;1058;-40
2022/01/08 02:56:32;;;;;;;;;;;22.30;32.70;;;;;;482255;246;1221;-39
2022/01/08 02:58:33;;;;;;;;;;;22.30;32.60;;;;;;482746;246;1208;-39
2022/01/08 03:00:35;;;;;;;;;;;22.30;32.60;;;;;;482603;246;1189;-40
2022/01/08 03:02:36;;;;;;;;;;;22.30;32.60;;;;;;482231;246;1173;-39
2022/01/08 03:04:37;;;;;;;;;;;22.30;32.60;;;;;;482323;246;1085;-39
2022/01/08 03:06:39;;;;;;;;;;;22.30;32.60;;;;;;482279;246;1362;-40
2022/01/08 03:08:40;;;;;;;;;;;22.30;32.60;;;;;;482382;246;1091;-39
2022/01/08 03:10:41;;;;;;;;;;;22.30;32.60;;;;;;482594;246;2180;-39
2022/01/08 03:12:43;;;;;;;;;;;22.40;32.60;;;;;;482288;246;1086;-40
2022/01/08 03:14:44;;;;;;;;;;;22.40;32.60;;;;;;482442;246;1069;-39
2022/01/08 03:16:45;;;;;;;;;;;22.40;32.60;;;;;;482250;246;1304;-39
2022/01/08 03:18:47;;;;;;;;;;;22.40;32.60;;;;;;482345;246;1355;-39
2022/01/08 03:21:01;;;;;;;;;;;22.40;32.50;;;;;;482589;246;1185;-39
2022/01/08 03:22:49;;;;;;;;;;;22.40;32.50;;;;;;481453;247;2302;-39
2022/01/08 03:24:51;;;;;;;;;;;22.40;32.50;;;;;;482255;246;1101;-39
2022/01/08 03:26:52;;;;;;;;;;;22.40;32.50;;;;;;482234;246;1340;-40
2022/01/08 03:28:53;;;;;;;;;;;22.50;32.50;;;;;;482725;246;1211;-39
2022/01/08 03:30:55;;;;;;;;;;;22.40;32.40;;;;;;482482;246;2153;-39
2022/01/08 03:32:56;;;;;;;;;;;22.50;32.50;;;;;;482600;246;1218;-39
2022/01/08 03:34:57;;;;;;;;;;;22.50;32.40;;;;;;482234;246;1132;-39
2022/01/08 03:36:59;;;;;;;;;;;22.50;32.50;;;;;;482687;246;1157;-39
2022/01/08 03:39:00;;;;;;;;;;;22.50;32.40;;;;;;482512;246;1245;-39
2022/01/08 03:41:01;;;;;;;;;;;22.50;32.50;;;;;;482286;243;1107;-39
2022/01/08 03:43:02;;;;;;;;;;;22.50;32.50;;;;;;482261;246;1237;-39
2022/01/08 03:45:04;;;;;;;;;;;22.50;32.40;;;;;;482386;246;1198;-40
2022/01/08 03:47:23;;;;;;;;;;;22.50;32.40;;;;;;482268;246;1230;-40
2022/01/08 03:49:25;;;;;;;;;;;22.50;32.40;;;;;;481715;247;2401;-39
2022/01/08 03:51:27;;;;;;;;;;;22.50;32.40;;;;;;482603;246;2173;-39
2022/01/08 03:53:28;;;;;;;;;;;22.60;32.50;;;;;;482259;246;1086;-40
2022/01/08 03:55:29;;;;;;;;;;;22.60;32.50;;;;;;482342;246;1002;-39
2022/01/08 03:57:31;;;;;;;;;;;22.50;32.40;;;;;;482535;246;1199;-39
2022/01/08 03:59:32;;;;;;;;;;;22.60;32.50;;;;;;482710;246;1063;-39
2022/01/08 04:01:33;;;;;;;;;;;22.50;32.40;;;;;;482398;246;1190;-39
2022/01/08 04:03:34;;;;;;;;;;;22.60;32.40;;;;;;482316;246;1113;-40
2022/01/08 04:05:36;;;;;;;;;;;22.60;32.40;;;;;;482432;246;1057;-39
2022/01/08 04:07:37;;;;;;;;;;;22.60;32.40;;;;;;482236;246;1186;-39
2022/01/08 04:09:38;;;;;;;;;;;22.60;32.40;;;;;;482413;246;1227;-40
2022/01/08 04:11:40;;;;;;;;;;;22.60;32.40;;;;;;482462;246;2106;-39
2022/01/08 04:13:42;;;;;;;;;;;22.60;32.40;;;;;;482463;246;1070;-39
2022/01/08 04:15:45;;;;;;;;;;;22.60;32.40;;;;;;482200;247;2274;-40
2022/01/08 04:17:44;;;;;;;;;;;22.60;32.40;;;;;;482255;247;2504;-39
2022/01/08 04:19:45;;;;;;;;;;;22.60;32.40;;;;;;482418;246;1052;-39
2022/01/08 04:24:13;;;;;;;;;;;22.70;32.40;;;;;;482228;246;1158;-39
2022/01/08 04:26:14;;;;;;;;;;;22.60;32.30;;;;;;482337;246;1452;-39
2022/01/08 04:28:16;;;;;;;;;;;22.70;32.40;;;;;;482547;246;1144;-39
2022/01/08 04:30:17;;;;;;;;;;;22.70;32.40;;;;;;482667;246;2106;-39
2022/01/08 04:32:18;;;;;;;;;;;22.60;32.60;;;;;;482281;246;1201;-39
2022/01/08 04:34:21;;;;;;;;;;;22.50;32.60;;;;;;482734;246;1271;-39
2022/01/08 04:36:21;;;;;;;;;;;22.30;32.90;;;;;;482311;246;2291;-39
2022/01/08 04:38:22;;;;;;;;;;;22.10;33.30;;;;;;482428;246;1250;-39
2022/01/08 04:40:24;;;;;;;;;;;21.90;33.50;;;;;;482286;246;1182;-39
2022/01/08 04:42:25;;;;;;;;;;;21.80;33.80;;;;;;482482;246;1236;-39
2022/01/08 04:44:26;;;;;;;;;;;21.80;34.00;;;;;;482358;246;1220;-39
2022/01/08 04:46:27;;;;;;;;;;;21.60;34.10;;;;;;482207;246;1633;-39
2022/01/08 04:48:29;;;;;;;;;;;21.60;34.20;;;;;;482565;246;1072;-39
2022/01/08 04:50:30;;;;;;;;;;;21.60;34.30;;;;;;482268;246;2119;-39
2022/01/08 04:52:31;;;;;;;;;;;21.50;34.30;;;;;;482265;246;1117;-39
2022/01/08 04:54:33;;;;;;;;;;;21.50;34.40;;;;;;482684;246;1052;-39
2022/01/08 04:56:34;;;;;;;;;;;21.40;34.40;;;;;;482249;246;1207;-39
2022/01/08 04:58:35;;;;;;;;;;;21.40;34.50;;;;;;482725;246;1104;-39
2022/01/08 05:00:38;;;;;;;;;;;21.30;34.70;;;;;;482355;246;1233;-40
2022/01/08 05:02:38;;;;;;;;;;;21.30;34.70;;;;;;482250;246;2409;-39
2022/01/08 05:04:40;;;;;;;;;;;21.30;34.70;;;;;;482328;246;1083;-39
2022/01/08 05:06:41;;;;;;;;;;;21.30;34.70;;;;;;482472;246;1173;-39
2022/01/08 05:08:42;;;;;;;;;;;21.30;34.70;;;;;;482468;246;1126;-39
2022/01/08 05:10:44;;;;;;;;;;;21.30;34.80;;;;;;482414;246;2197;-39
2022/01/08 05:12:45;;;;;;;;;;;21.20;34.80;;;;;;482390;246;1148;-39
2022/01/08 05:14:47;;;;;;;;;;;21.20;34.90;;;;;;482359;246;1049;-39
2022/01/08 05:16:55;;;;;;;;;;;21.20;34.80;;;;;;482476;247;2272;-39
2022/01/08 05:18:52;;;;;;;;;;;21.20;34.90;;;;;;482049;247;1785;-39
2022/01/08 05:20:56;;;;;;;;;;;21.20;34.90;;;;;;482537;247;2345;-39
2022/01/08 05:23:00;;;;;;;;;;;21.10;35.00;;;;;;482179;247;2102;-39
2022/01/08 05:24:55;;;;;;;;;;;21.10;35.00;;;;;;482070;247;1751;-39
2022/01/08 05:26:56;;;;;;;;;;;21.10;35.10;;;;;;482273;246;1333;-39
2022/01/08 05:28:57;;;;;;;;;;;21.00;35.10;;;;;;482461;246;1257;-40
2022/01/08 05:30:58;;;;;;;;;;;21.00;35.10;;;;;;482283;246;2130;-39
2022/01/08 05:33:00;;;;;;;;;;;21.00;35.10;;;;;;482310;246;1210;-39
2022/01/08 05:35:01;;;;;;;;;;;21.00;35.10;;;;;;482742;246;1079;-39
2022/01/08 05:37:02;;;;;;;;;;;21.00;35.20;;;;;;482243;246;1173;-39
2022/01/08 05:39:04;;;;;;;;;;;21.00;35.30;;;;;;482511;246;1229;-39
2022/01/08 05:41:05;;;;;;;;;;;20.90;35.20;;;;;;482380;246;1290;-39
2022/01/08 05:43:06;;;;;;;;;;;21.00;35.30;;;;;;482461;246;1094;-39
2022/01/08 05:45:08;;;;;;;;;;;20.90;35.20;;;;;;482398;246;1068;-39
2022/01/08 05:47:09;;;;;;;;;;;20.90;35.30;;;;;;482289;243;1317;-39
2022/01/08 05:49:11;;;;;;;;;;;20.90;35.30;;;;;;482316;246;1072;-39
2022/01/08 05:51:12;;;;;;;;;;;20.90;35.30;;;;;;482417;246;2110;-39
2022/01/08 05:53:13;;;;;;;;;;;20.90;35.30;;;;;;482749;246;1044;-39
2022/01/08 05:55:14;;;;;;;;;;;20.80;35.30;;;;;;482722;246;1052;-39
2022/01/08 05:57:15;;;;;;;;;;;20.90;35.30;;;;;;482666;246;1398;-39
2022/01/08 05:59:17;;;;;;;;;;;20.80;35.30;;;;;;482622;246;1098;-39
2022/01/08 06:01:18;;;;;;;;;;;20.80;35.40;;;;;;482270;246;1350;-39
2022/01/08 06:03:20;;;;;;;;;;;20.80;35.40;;;;;;482342;246;1146;-39
2022/01/08 06:05:21;;;;;;;;;;;20.80;35.40;;;;;;482667;246;1052;-39
2022/01/08 06:07:22;;;;;;;;;;;20.80;35.40;;;;;;482397;246;1201;-39
2022/01/08 06:09:23;;;;;;;;;;;20.80;35.40;;;;;;482474;246;1238;-39
2022/01/08 06:11:25;;;;;;;;;;;20.80;35.40;;;;;;482529;246;2126;-39
2022/01/08 06:13:26;;;;;;;;;;;20.80;35.40;;;;;;482667;246;1048;-39
2022/01/08 06:15:27;;;;;;;;;;;20.80;35.40;;;;;;482740;246;1409;-39
2022/01/08 06:17:29;;;;;;;;;;;20.80;35.40;;;;;;482428;246;1207;-39
2022/01/08 06:19:30;;;;;;;;;;;20.80;35.40;;;;;;482772;246;1057;-39
2022/01/08 06:21:31;;;;;;;;;;;20.80;35.50;;;;;;482248;246;1162;-39
2022/01/08 06:23:33;;;;;;;;;;;20.80;35.50;;;;;;482222;246;1052;-39
2022/01/08 06:25:34;;;;;;;;;;;20.70;35.50;;;;;;482584;246;1304;-39
2022/01/08 06:27:36;;;;;;;;;;;20.70;35.50;;;;;;482666;246;1205;-39
2022/01/08 06:29:37;;;;;;;;;;;20.70;35.50;;;;;;482512;246;1106;-39
2022/01/08 06:31:38;;;;;;;;;;;20.70;35.60;;;;;;482384;246;2188;-39
2022/01/08 06:33:40;;;;;;;;;;;20.70;35.60;;;;;;482273;246;1213;-39
2022/01/08 06:35:41;;;;;;;;;;;20.70;35.50;;;;;;482313;246;1679;-39
2022/01/08 06:37:42;;;;;;;;;;;20.70;35.50;;;;;;482194;246;1287;-39
2022/01/08 06:39:43;;;;;;;;;;;20.70;35.60;;;;;;482523;246;1037;-39
2022/01/08 06:41:45;;;;;;;;;;;20.70;35.50;;;;;;482514;246;1193;-39
2022/01/08 06:43:46;;;;;;;;;;;20.70;35.50;;;;;;482356;246;1039;-39
2022/01/08 06:45:47;;;;;;;;;;;20.70;35.60;;;;;;482751;246;1096;-39
2022/01/08 06:47:49;;;;;;;;;;;20.70;35.60;;;;;;482474;246;1356;-39
2022/01/08 06:49:50;;;;;;;;;;;20.60;35.60;;;;;;482645;246;1338;-39
2022/01/08 06:51:51;;;;;;;;;;;20.70;35.60;;;;;;482463;246;2201;-39
2022/01/08 06:53:53;;;;;;;;;;;20.60;35.60;;;;;;482281;246;1061;-40
2022/01/08 06:55:54;;;;;;;;;;;20.60;35.60;;;;;;482240;246;1534;-39
2022/01/08 06:57:56;;;;;;;;;;;20.60;35.60;;;;;;482234;246;1186;-39
2022/01/08 06:59:57;;;;;;;;;;;20.70;35.60;;;;;;482515;246;2414;-39
2022/01/08 07:01:58;;;;;;;;;;;20.60;35.60;;;;;;482394;246;1235;-39
2022/01/08 07:03:59;;;;;;;;;;;20.60;35.60;;;;;;482293;246;1273;-39
2022/01/08 07:06:01;;;;;;;;;;;20.60;35.60;;;;;;482563;246;1252;-39
2022/01/08 07:08:02;;;;;;;;;;;20.60;35.60;;;;;;482553;246;1274;-39
2022/01/08 07:10:03;;;;;;;;;;;20.60;35.60;;;;;;482266;246;1076;-39
2022/01/08 07:12:05;;;;;;;;;;;20.60;35.60;;;;;;482321;246;2130;-39
2022/01/08 07:14:06;;;;;;;;;;;20.60;35.60;;;;;;482340;246;1239;-39
2022/01/08 07:16:07;;;;;;;;;;;20.60;35.60;;;;;;482617;246;1189;-39
2022/01/08 07:18:09;;;;;;;;;;;20.60;35.60;;;;;;482268;246;1156;-39
2022/01/08 07:20:10;;;;;;;;;;;20.60;35.60;;;;;;482663;246;1392;-39
2022/01/08 07:22:11;;;;;;;;;;;20.60;35.70;;;;;;482212;246;1212;-39
2022/01/08 07:24:12;;;;;;;;;;;20.50;35.70;;;;;;482298;246;1066;-40
2022/01/08 07:26:14;;;;;;;;;;;20.60;35.70;;;;;;482614;246;1168;-39
2022/01/08 07:28:15;;;;;;;;;;;20.60;35.60;;;;;;482455;246;1245;-39
2022/01/08 07:30:16;;;;;;;;;;;20.60;35.60;;;;;;482337;246;968;-39
2022/01/08 07:32:18;;;;;;;;;;;20.60;35.70;;;;;;482335;246;2193;-40
2022/01/08 07:34:19;;;;;;;;;;;20.60;35.60;;;;;;482279;246;1192;-39
2022/01/08 07:36:20;;;;;;;;;;;20.60;35.70;;;;;;482427;246;1149;-39
2022/01/08 07:38:22;;;;;;;;;;;20.60;35.70;;;;;;482298;246;1177;-39
2022/01/08 07:40:23;;;;;;;;;;;20.50;35.80;;;;;;482353;246;1077;-39
2022/01/08 07:42:24;;;;;;;;;;;20.50;35.70;;;;;;482489;246;1187;-39
2022/01/08 07:44:26;;;;;;;;;;;20.50;35.80;;;;;;482739;246;1373;-39
2022/01/08 07:46:27;;;;;;;;;;;20.50;35.80;;;;;;482543;246;1241;-39
2022/01/08 07:48:28;;;;;;;;;;;20.60;35.80;;;;;;482276;246;1108;-39
2022/01/08 07:50:30;;;;;;;;;;;20.50;35.70;;;;;;482297;246;1334;-40
2022/01/08 07:52:31;;;;;;;;;;;20.50;35.70;;;;;;482212;246;2133;-39
2022/01/08 07:54:32;;;;;;;;;;;20.50;35.70;;;;;;482483;246;1067;-39
2022/01/08 07:56:35;;;;;;;;;;;20.50;35.80;;;;;;482389;246;1128;-39
2022/01/08 07:58:35;;;;;;;;;;;20.50;35.80;;;;;;482266;246;2338;-39
2022/01/08 08:00:37;;;;;;;;;;;20.50;35.80;;;;;;482444;246;1178;-39
2022/01/08 08:02:38;;;;;;;;;;;20.50;35.80;;;;;;482206;246;1108;-39
2022/01/08 08:04:39;;;;;;;;;;;20.50;35.80;;;;;;482331;246;1347;-39
2022/01/08 08:06:41;;;;;;;;;;;20.50;35.80;;;;;;482637;246;1345;-39
2022/01/08 08:08:42;;;;;;;;;;;20.50;35.70;;;;;;482260;246;1042;-39
2022/01/08 08:10:43;;;;;;;;;;;20.50;35.80;;;;;;482274;246;1104;-39
2022/01/08 08:12:45;;;;;;;;;;;20.50;35.80;;;;;;482677;246;2133;-39
2022/01/08 08:14:46;;;;;;;;;;;20.50;35.80;;;;;;482335;246;1244;-39
2022/01/08 08:16:47;;;;;;;;;;;20.50;35.80;;;;;;482438;246;1360;-39
2022/01/08 08:18:48;;;;;;;;;;;20.50;35.80;;;;;;482284;246;1197;-39
2022/01/08 08:20:50;;;;;;;;;;;20.40;35.80;;;;;;482412;246;1347;-39
2022/01/08 08:22:51;;;;;;;;;;;20.40;35.80;;;;;;482379;246;1226;-39
2022/01/08 08:24:52;;;;;;;;;;;20.40;35.80;;;;;;482660;246;1034;-39
2022/01/08 08:26:54;;;;;;;;;;;20.40;35.80;;;;;;482182;246;1497;-39
2022/01/08 08:28:55;;;;;;;;;;;20.40;35.80;;;;;;482401;246;1172;-39
2022/01/08 08:30:56;;;;;;;;;;;20.40;35.80;;;;;;482265;246;1197;-39
2022/01/08 08:32:58;;;;;;;;;;;20.50;35.90;;;;;;482235;246;2181;-39
2022/01/08 08:34:59;;;;;;;;;;;20.40;35.80;;;;;;482348;246;1216;-39
2022/01/08 08:37:00;;;;;;;;;;;20.50;35.80;;;;;;482375;246;1230;-39
2022/01/08 08:39:02;;;;;;;;;;;20.50;35.80;;;;;;482658;246;1023;-39
2022/01/08 08:41:03;;;;;;;;;;;20.40;35.90;;;;;;482547;246;1431;-39
2022/01/08 08:43:04;;;;;;;;;;;20.50;35.80;;;;;;482273;246;1291;-39
2022/01/08 08:45:05;;;;;;;;;;;20.40;35.80;;;;;;482639;246;988;-39
2022/01/08 08:47:07;;;;;;;;;;;20.40;35.80;;;;;;482246;246;1159;-39
2022/01/08 08:49:08;;;;;;;;;;;20.50;35.90;;;;;;482532;246;1135;-39
2022/01/08 08:51:09;;;;;;;;;;;20.40;35.80;;;;;;482561;246;1161;-39
2022/01/08 08:53:11;;;;;;;;;;;20.40;35.80;;;;;;482318;246;2201;-39
2022/01/08 08:55:13;;;;;;;;;;;20.50;35.80;;;;;;482274;246;1111;-39
2022/01/08 08:57:13;;;;;;;;;;;20.40;35.80;;;;;;482038;247;2294;-39
2022/01/08 08:59:15;;;;;;;;;;;20.50;35.80;;;;;;482243;246;1075;-39
2022/01/08 09:01:16;;;;;;;;;;;20.40;35.80;;;;;;482277;243;1370;-40
2022/01/08 09:03:17;;;;;;;;;;;20.40;35.80;;;;;;482535;246;1057;-39
2022/01/08 09:05:19;;;;;;;;;;;20.40;35.80;;;;;;482299;246;1143;-39
2022/01/08 09:07:20;;;;;;;;;;;20.40;35.80;;;;;;482099;246;1640;-39
2022/01/08 09:09:21;;;;;;;;;;;20.40;35.80;;;;;;482539;246;1649;-39
2022/01/08 09:11:23;;;;;;;;;;;20.50;35.80;;;;;;482433;246;1597;-39
2022/01/08 09:13:26;;;;;;;;;;;20.40;35.80;;;;;;482273;246;2125;-39
2022/01/08 09:15:26;;;;;;;;;;;20.40;35.80;;;;;;482188;247;1497;-39
2022/01/08 09:17:27;;;;;;;;;;;20.40;35.80;;;;;;482296;246;1632;-39
2022/01/08 09:19:28;;;;;;;;;;;20.40;35.80;;;;;;482482;246;1096;-39
2022/01/08 09:21:30;;;;;;;;;;;20.40;35.90;;;;;;482494;246;1230;-39
2022/01/08 09:23:31;;;;;;;;;;;20.40;35.80;;;;;;482231;246;1350;-39
2022/01/08 09:25:33;;;;;;;;;;;20.40;35.80;;;;;;482457;246;1094;-39
2022/01/08 09:27:34;;;;;;;;;;;20.40;35.80;;;;;;482492;246;1175;-39
2022/01/08 09:29:35;;;;;;;;;;;20.40;35.80;;;;;;482260;246;1210;-39
2022/01/08 09:31:36;;;;;;;;;;;20.40;35.90;;;;;;482665;246;2122;-39
2022/01/08 09:33:38;;;;;;;;;;;20.40;35.90;;;;;;482508;246;1157;-39
2022/01/08 09:35:39;;;;;;;;;;;20.40;35.90;;;;;;482267;246;1159;-39
2022/01/08 09:37:40;;;;;;;;;;;20.40;35.90;;;;;;482242;246;1222;-39
2022/01/08 09:39:42;;;;;;;;;;;20.40;35.90;;;;;;482470;246;1031;-39
2022/01/08 09:41:43;;;;;;;;;;;20.40;35.80;;;;;;482357;246;1494;-39
2022/01/08 09:43:44;;;;;;;;;;;20.40;35.90;;;;;;482249;246;1150;-39
2022/01/08 09:45:46;;;;;;;;;;;20.40;35.80;;;;;;482645;246;1133;-39
2022/01/08 09:47:47;;;;;;;;;;;20.40;35.90;;;;;;482252;246;1191;-39
2022/01/08 09:49:50;;;;;;;;;;;20.40;35.90;;;;;;482370;246;1649;-39
2022/01/08 09:51:50;;;;;;;;;;;20.40;35.90;;;;;;482612;246;2411;-39
2022/01/08 09:53:51;;;;;;;;;;;20.40;35.90;;;;;;482199;246;1082;-39
2022/01/08 09:55:53;;;;;;;;;;;20.30;35.80;;;;;;482344;246;1323;-39
2022/01/08 09:57:54;;;;;;;;;;;20.40;35.80;;;;;;482563;246;1153;-39
2022/01/08 09:59:56;;;;;;;;;;;20.30;35.80;;;;;;482502;246;1051;-39
2022/01/08 10:01:58;;;;;;;;;;;20.30;35.80;;;;;;482363;246;1296;-39
2022/01/08 10:03:59;;;;;;;;;;;20.30;35.90;;;;;;482224;247;2312;-39
2022/01/08 10:06:00;;;;;;;;;;;20.30;35.90;;;;;;482199;246;1337;-39
2022/01/08 10:08:02;;;;;;;;;;;20.40;35.90;;;;;;482261;246;1202;-39
2022/01/08 10:10:03;;;;;;;;;;;20.40;35.80;;;;;;482275;247;2426;-39
2022/01/08 10:12:04;;;;;;;;;;;20.30;35.90;;;;;;482660;246;2121;-39
2022/01/08 10:14:06;;;;;;;;;;;20.40;35.90;;;;;;482752;246;1076;-39
2022/01/08 10:18:26;;;;;;;;;;;20.40;35.90;;;;;;482460;247;1194;-39
2022/01/08 10:20:27;;;;;;;;;;;20.40;35.90;;;;;;482371;246;1222;-39
2022/01/08 10:22:29;;;;;;;;;;;20.30;36.00;;;;;;482668;246;1163;-39
2022/01/08 10:24:31;;;;;;;;;;;20.30;35.90;;;;;;482297;246;1107;-39
2022/01/08 10:26:31;;;;;;;;;;;20.30;35.90;;;;;;482341;247;2443;-39
2022/01/08 10:28:33;;;;;;;;;;;20.30;35.90;;;;;;482261;246;1117;-39
2022/01/08 10:30:34;;;;;;;;;;;20.30;35.90;;;;;;482253;246;1066;-39
2022/01/08 10:32:35;;;;;;;;;;;20.30;36.00;;;;;;482449;246;2133;-39
2022/01/08 10:34:37;;;;;;;;;;;20.30;36.00;;;;;;482309;246;1294;-39
2022/01/08 10:36:38;;;;;;;;;;;20.30;35.90;;;;;;482484;246;1231;-39
2022/01/08 10:38:39;;;;;;;;;;;20.30;36.00;;;;;;482235;246;1067;-39
2022/01/08 10:40:41;;;;;;;;;;;20.30;35.90;;;;;;482271;246;1125;-40
2022/01/08 10:42:42;;;;;;;;;;;20.30;35.90;;;;;;482348;246;1224;-39
2022/01/08 10:44:43;;;;;;;;;;;20.30;36.00;;;;;;482512;246;1039;-39
2022/01/08 10:46:44;;;;;;;;;;;20.30;36.00;;;;;;482250;246;1206;-39
2022/01/08 10:48:46;;;;;;;;;;;20.30;35.90;;;;;;482292;246;1143;-39
2022/01/08 10:50:47;;;;;;;;;;;20.30;35.90;;;;;;482397;246;1314;-39
2022/01/08 10:52:49;;;;;;;;;;;20.30;35.90;;;;;;482135;246;2196;-39
2022/01/08 10:54:50;;;;;;;;;;;20.30;35.90;;;;;;482363;246;1040;-39
2022/01/08 10:56:55;;;;;;;;;;;20.30;35.90;;;;;;482180;246;1345;-39
2022/01/08 10:58:55;;;;;;;;;;;20.30;35.90;;;;;;482128;247;1746;-39
2022/01/08 11:00:55;;;;;;;;;;;20.30;35.90;;;;;;482112;247;2192;-39
2022/01/08 11:02:56;;;;;;;;;;;20.30;36.00;;;;;;482257;246;1463;-39
2022/01/08 11:04:57;;;;;;;;;;;20.30;35.90;;;;;;482347;246;1151;-39
2022/01/08 11:06:59;;;;;;;;;;;20.30;35.90;;;;;;482620;243;1701;-39
2022/01/08 11:09:01;;;;;;;;;;;20.30;36.00;;;;;;482690;246;1120;-39
2022/01/08 11:11:02;;;;;;;;;;;20.30;36.00;;;;;;482675;246;1242;-39
2022/01/08 11:13:03;;;;;;;;;;;20.30;36.00;;;;;;482532;246;2129;-39
2022/01/08 11:15:24;;;;;;;;;;;20.30;36.00;;;;;;482341;246;1025;-39
2022/01/08 11:17:14;;;;;;;;;;;20.20;36.00;;;;;;481643;247;2284;-39
2022/01/08 11:19:16;;;;;;;;;;;20.20;36.00;;;;;;482749;246;1040;-39
2022/01/08 11:21:17;;;;;;;;;;;20.20;36.00;;;;;;482260;247;1489;-39
2022/01/08 11:23:19;;;;;;;;;;;20.30;36.00;;;;;;482674;246;1059;-39
2022/01/08 11:25:21;;;;;;;;;;;20.30;36.10;;;;;;482519;246;1960;-39
2022/01/08 11:27:21;;;;;;;;;;;20.30;36.00;;;;;;482145;247;2283;-39
2022/01/08 11:29:22;;;;;;;;;;;20.20;36.00;;;;;;482307;246;1051;-39
2022/01/08 11:31:24;;;;;;;;;;;20.20;36.00;;;;;;482623;246;1267;-39
2022/01/08 11:33:28;;;;;;;;;;;20.20;36.00;;;;;;482637;246;2208;-39
2022/01/08 11:35:27;;;;;;;;;;;20.20;36.00;;;;;;482098;247;2307;-39
2022/01/08 11:37:28;;;;;;;;;;;20.30;36.10;;;;;;482170;246;1231;-39
2022/01/08 11:39:29;;;;;;;;;;;20.30;36.00;;;;;;482259;246;1059;-39
2022/01/08 11:41:30;;;;;;;;;;;20.30;35.90;;;;;;482155;246;1315;-39
2022/01/08 11:43:32;;;;;;;;;;;20.30;35.90;;;;;;482594;246;1078;-39
2022/01/08 11:45:33;;;;;;;;;;;20.40;35.80;;;;;;482717;243;1191;-39
2022/01/08 11:47:34;;;;;;;;;;;20.60;35.40;;;;;;482478;246;1522;-39
2022/01/08 11:49:36;;;;;;;;;;;20.80;35.10;;;;;;482732;246;1040;-39
2022/01/08 11:51:37;;;;;;;;;;;20.90;34.70;;;;;;482175;246;1329;-39
2022/01/08 11:53:38;;;;;;;;;;;21.10;34.60;;;;;;482705;246;2129;-39
2022/01/08 11:55:39;;;;;;;;;;;21.10;34.40;;;;;;482628;246;1306;-39
2022/01/08 11:57:41;;;;;;;;;;;21.20;34.20;;;;;;482510;246;1200;-39
2022/01/08 11:59:42;;;;;;;;;;;21.30;34.10;;;;;;482367;246;1059;-39
2022/01/08 12:01:44;;;;;;;;;;;21.40;34.00;;;;;;482481;246;1374;-39
2022/01/08 12:03:45;;;;;;;;;;;21.40;33.90;;;;;;482301;246;1190;-39
2022/01/08 12:05:46;;;;;;;;;;;21.40;33.80;;;;;;482282;246;1203;-40
2022/01/08 12:07:50;;;;;;;;;;;21.50;33.80;;;;;;482672;246;1239;-39
2022/01/08 12:09:49;;;;;;;;;;;21.50;33.70;;;;;;482627;247;2256;-40
2022/01/08 12:11:50;;;;;;;;;;;21.60;33.70;;;;;;482683;246;1328;-40
2022/01/08 12:13:52;;;;;;;;;;;21.60;33.60;;;;;;482255;246;2197;-39